createdAt,value
2022-12-25T00:06:25.281Z,8.28
2022-12-25T00:28:11.084Z,8.33
2022-12-25T00:49:56.913Z,8.39
2022-12-25T01:11:42.687Z,8.06
2022-12-25T01:33:28.323Z,7.61
2022-12-25T01:55:14.669Z,7.76
2022-12-25T02:17:08.805Z,7.62
2022-12-25T02:39:18.330Z,7.79
2022-12-25T03:01:26.272Z,7.32
2022-12-25T03:23:31.306Z,7.09
2022-12-25T03:45:45.265Z,6.71
2022-12-25T04:07:48.715Z,6.48
2022-12-25T04:29:52.359Z,6.04
2022-12-25T04:51:39.379Z,5.90
2022-12-25T05:13:25.303Z,5.56
2022-12-25T05:35:12.078Z,5.48
2022-12-25T05:56:58.192Z,5.68
2022-12-25T06:18:46.091Z,5.44
2022-12-25T06:40:31.803Z,4.83
2022-12-25T07:02:20.820Z,4.59
2022-12-25T07:24:07.450Z,4.49
2022-12-25T07:45:57.859Z,4.81
2022-12-25T08:07:43.791Z,5.16
2022-12-25T08:29:29.669Z,5.74
2022-12-25T08:51:17.540Z,6.08
2022-12-25T09:13:03.215Z,6.43
2022-12-25T09:34:48.909Z,7.14
2022-12-25T09:56:36.248Z,7.85
2022-12-25T10:18:49.191Z,15.28
2022-12-25T10:40:44.248Z,14.50
2022-12-25T11:02:35.618Z,11.82
2022-12-25T11:43:49.651Z,10.71
2022-12-25T12:05:41.240Z,10.42
2022-12-25T12:27:35.537Z,10.27
2022-12-25T12:49:25.707Z,10.43
2022-12-25T13:11:19.576Z,10.37
2022-12-25T13:33:06.186Z,10.30
2022-12-25T13:55:01.553Z,10.04
2022-12-25T14:16:49.802Z,9.80
2022-12-25T14:38:36.899Z,9.35
2022-12-25T15:00:27.603Z,9.24
2022-12-25T15:22:15.179Z,9.17
2022-12-25T15:44:00.952Z,8.93
2022-12-25T16:05:46.764Z,8.83
2022-12-25T16:27:32.498Z,8.68
2022-12-25T16:49:18.408Z,8.46
2022-12-25T17:11:06.744Z,8.41
2022-12-25T17:32:52.679Z,8.49
2022-12-25T17:54:39.272Z,8.32
2022-12-25T18:16:27.177Z,8.36
2022-12-25T18:38:13.281Z,8.21
2022-12-25T18:59:58.979Z,8.19
2022-12-25T19:21:45.597Z,8.09
2022-12-25T19:43:33.358Z,8.23
2022-12-25T20:05:19.303Z,8.28
2022-12-25T20:43:45.096Z,8.04
2022-12-25T21:05:31.494Z,8.03
2022-12-25T21:27:17.342Z,7.81
2022-12-25T21:49:03.100Z,7.84
2022-12-25T22:10:48.823Z,7.91
2022-12-25T22:44:16.480Z,8.25
2022-12-25T23:05:58.353Z,8.09
2022-12-25T23:27:44.751Z,8.13
2022-12-25T23:49:31.028Z,8.28
